createdAt,value
2023-04-16T00:00:11.665Z,14.57
2023-04-16T00:02:39.732Z,23.03
2023-04-16T00:05:08.362Z,19.57
2023-04-16T00:07:37.683Z,19.27
2023-04-16T00:10:06.436Z,19.97
2023-04-16T00:12:34.540Z,16.20
2023-04-16T00:15:02.504Z,21.77
2023-04-16T00:17:30.539Z,15.17
2023-04-16T00:19:58.852Z,15.17
2023-04-16T00:22:27.016Z,14.17
2023-04-16T00:24:56.730Z,16.07
2023-04-16T00:27:24.686Z,16.43
2023-04-16T00:29:52.694Z,14.67
2023-04-16T00:32:20.684Z,45.07
2023-04-16T00:34:48.687Z,16.23
2023-04-16T00:37:16.722Z,17.53
2023-04-16T00:39:44.726Z,20.50
2023-04-16T00:42:14.053Z,17.73
2023-04-16T00:44:42.073Z,13.70
2023-04-16T00:47:10.675Z,24.60
2023-04-16T00:49:38.849Z,17.03
2023-04-16T00:52:07.028Z,19.43
2023-04-16T00:54:35.009Z,29.30
2023-04-16T00:57:03.573Z,27.73
2023-04-16T00:59:33.503Z,14.93
2023-04-16T01:02:01.722Z,17.37
2023-04-16T01:04:31.007Z,18.20
2023-04-16T01:06:59.141Z,20.87
2023-04-16T01:09:27.231Z,17.87
2023-04-16T01:11:55.227Z,27.10
2023-04-16T01:14:23.168Z,19.80
2023-04-16T01:16:52.599Z,21.23
2023-04-16T01:19:20.600Z,17.60
2023-04-16T01:21:49.892Z,23.73
2023-04-16T01:24:17.840Z,17.83
2023-04-16T01:26:45.853Z,19.70
2023-04-16T01:29:13.740Z,17.43
2023-04-16T01:31:41.748Z,17.50
2023-04-16T01:34:09.741Z,19.37
2023-04-16T01:36:37.679Z,17.03
2023-04-16T01:39:07.215Z,15.50
2023-04-16T01:41:36.250Z,23.80
2023-04-16T01:44:04.240Z,35.50
2023-04-16T01:46:34.478Z,15.33
2023-04-16T01:49:03.109Z,37.30
2023-04-16T01:51:32.237Z,18.53
2023-04-16T01:54:00.372Z,17.27
2023-04-16T01:56:29.652Z,14.37
2023-04-16T01:58:57.610Z,19.77
2023-04-16T02:01:25.753Z,17.47
2023-04-16T02:03:54.021Z,18.70
2023-04-16T02:06:22.015Z,15.83
2023-04-16T02:08:50.156Z,22.70
2023-04-16T02:11:18.239Z,19.13
2023-04-16T02:13:47.678Z,14.60
2023-04-16T02:16:15.747Z,29.47
2023-04-16T02:18:43.810Z,19.37
2023-04-16T02:21:11.753Z,20.00
2023-04-16T02:23:41.152Z,34.43
2023-04-16T02:26:09.314Z,18.83
2023-04-16T02:28:37.322Z,44.33
2023-04-16T02:31:06.723Z,29.33
2023-04-16T02:33:35.942Z,18.63
2023-04-16T02:36:03.940Z,24.13
2023-04-16T02:38:31.970Z,37.90
2023-04-16T02:40:59.950Z,26.00
2023-04-16T02:43:27.951Z,19.33
2023-04-16T02:45:55.981Z,17.13
2023-04-16T02:48:25.460Z,23.40
2023-04-16T02:50:53.400Z,14.63
2023-04-16T02:53:21.596Z,20.37
2023-04-16T02:55:53.526Z,14.80
2023-04-16T02:58:21.842Z,14.57
2023-04-16T03:00:49.911Z,22.30
2023-04-16T03:03:18.077Z,17.60
2023-04-16T03:05:47.676Z,19.63
2023-04-16T03:08:15.946Z,15.57
2023-04-16T03:10:43.950Z,21.27
2023-04-16T03:13:12.028Z,19.50
2023-04-16T03:15:40.083Z,20.63
2023-04-16T03:18:08.095Z,18.60
2023-04-16T03:20:36.267Z,19.37
2023-04-16T03:23:05.734Z,19.47
2023-04-16T03:25:33.739Z,30.10
2023-04-16T03:28:03.768Z,19.93
2023-04-16T03:30:31.842Z,25.40
2023-04-16T03:33:00.002Z,20.07
2023-04-16T03:35:28.119Z,38.00
2023-04-16T03:37:56.185Z,22.73
2023-04-16T03:40:25.526Z,23.13
2023-04-16T03:42:53.562Z,20.87
2023-04-16T03:45:21.621Z,25.50
2023-04-16T03:47:52.764Z,20.27
2023-04-16T03:50:21.191Z,20.63
2023-04-16T03:52:49.727Z,21.03
2023-04-16T03:55:18.263Z,21.20
2023-04-16T03:57:47.645Z,29.97
2023-04-16T04:00:15.835Z,28.53
2023-04-16T04:02:44.214Z,28.07
2023-04-16T04:05:12.513Z,22.20
2023-04-16T04:07:40.549Z,24.37
2023-04-16T04:10:10.411Z,22.67
2023-04-16T04:12:38.472Z,20.07
2023-04-16T04:15:09.308Z,20.40
2023-04-16T04:17:37.399Z,25.23
2023-04-16T04:20:06.186Z,22.90
2023-04-16T04:22:34.094Z,24.30
2023-04-16T04:25:02.175Z,25.63
2023-04-16T04:27:30.441Z,20.17
2023-04-16T04:29:58.798Z,18.10
2023-04-16T04:32:28.235Z,31.00
2023-04-16T04:34:56.342Z,22.93
2023-04-16T04:37:24.490Z,22.20
2023-04-16T04:39:52.535Z,27.60
2023-04-16T04:42:21.509Z,30.37
2023-04-16T04:44:49.550Z,21.27
2023-04-16T04:47:17.513Z,27.20
2023-04-16T04:49:46.925Z,27.10
2023-04-16T04:52:15.430Z,21.70
2023-04-16T04:54:43.637Z,25.53
2023-04-16T04:57:11.740Z,20.00
2023-04-16T04:59:39.785Z,25.17
2023-04-16T05:02:07.908Z,21.60
2023-04-16T05:04:36.138Z,24.10
2023-04-16T05:07:06.541Z,19.73
2023-04-16T05:09:34.578Z,24.73
2023-04-16T05:12:02.790Z,19.27
2023-04-16T05:14:30.848Z,28.00
2023-04-16T05:16:58.898Z,26.13
2023-04-16T05:19:26.906Z,26.67
2023-04-16T05:21:55.873Z,20.67
2023-04-16T05:24:25.493Z,24.23
2023-04-16T05:26:53.469Z,21.57
2023-04-16T05:29:22.037Z,24.97
2023-04-16T05:31:50.071Z,20.17
2023-04-16T05:34:18.093Z,27.50
2023-04-16T05:36:46.047Z,28.60
2023-04-16T05:39:14.101Z,23.13
2023-04-16T05:41:43.526Z,16.67
2023-04-16T05:44:11.552Z,18.50
2023-04-16T05:46:39.604Z,23.23
2023-04-16T05:49:07.763Z,24.97
2023-04-16T05:51:36.688Z,24.13
2023-04-16T05:54:04.872Z,20.80
2023-04-16T05:56:32.872Z,23.07
2023-04-16T05:59:02.292Z,24.27
2023-04-16T06:01:30.247Z,31.63
2023-04-16T06:03:58.597Z,19.50
2023-04-16T06:06:27.434Z,24.40
2023-04-16T06:08:55.475Z,29.80
2023-04-16T06:11:23.629Z,23.50
2023-04-16T06:13:51.526Z,18.83
2023-04-16T06:16:21.066Z,22.90
2023-04-16T06:18:49.203Z,21.97
2023-04-16T06:21:17.446Z,20.50
2023-04-16T06:23:45.500Z,20.23
2023-04-16T06:26:13.531Z,18.57
2023-04-16T06:28:41.588Z,20.37
2023-04-16T06:31:09.761Z,19.20
2023-04-16T06:33:39.150Z,19.93
2023-04-16T06:36:07.472Z,13.67
2023-04-16T06:38:35.524Z,15.27
2023-04-16T06:41:03.688Z,19.57
2023-04-16T06:43:33.537Z,17.03
2023-04-16T06:46:01.651Z,15.87
2023-04-16T06:48:30.096Z,17.40
2023-04-16T06:50:59.520Z,17.43
2023-04-16T06:53:27.584Z,27.77
2023-04-16T06:55:55.667Z,17.63
2023-04-16T06:58:23.944Z,17.63
2023-04-16T07:00:52.099Z,12.50
2023-04-16T07:03:20.600Z,18.43
2023-04-16T07:05:48.680Z,12.70
2023-04-16T07:08:18.003Z,30.07
2023-04-16T07:10:46.324Z,20.23
2023-04-16T07:13:14.362Z,16.20
2023-04-16T07:15:42.366Z,24.47
2023-04-16T07:18:10.566Z,16.60
2023-04-16T07:20:38.852Z,19.60
2023-04-16T07:23:06.977Z,16.53
2023-04-16T07:25:36.342Z,18.97
2023-04-16T07:28:05.084Z,16.40
2023-04-16T07:30:34.723Z,15.73
2023-04-16T07:33:04.063Z,44.73
2023-04-16T07:35:32.450Z,17.70
2023-04-16T07:38:00.404Z,15.50
2023-04-16T07:40:28.548Z,14.27
2023-04-16T07:42:58.656Z,14.20
2023-04-16T07:45:26.747Z,17.30
2023-04-16T07:47:54.753Z,18.00
2023-04-16T07:50:22.900Z,14.40
2023-04-16T07:52:51.097Z,15.17
2023-04-16T07:55:19.102Z,17.17
2023-04-16T07:57:47.300Z,18.93
2023-04-16T08:00:17.226Z,19.13
2023-04-16T08:02:46.123Z,14.80
2023-04-16T08:05:14.592Z,16.87
2023-04-16T08:07:43.007Z,15.60
2023-04-16T08:10:11.339Z,18.40
2023-04-16T08:12:39.416Z,18.43
2023-04-16T08:15:08.973Z,16.43
2023-04-16T08:17:38.480Z,16.77
2023-04-16T08:20:07.568Z,17.77
2023-04-16T08:22:35.734Z,12.87
2023-04-16T08:25:04.553Z,19.50
2023-04-16T08:27:32.405Z,13.00
2023-04-16T08:30:00.351Z,12.87
2023-04-16T08:32:31.536Z,16.57
2023-04-16T08:35:00.991Z,17.33
2023-04-16T08:37:29.000Z,22.67
2023-04-16T08:39:57.050Z,12.33
2023-04-16T08:42:32.192Z,12.03
2023-04-16T08:45:08.725Z,12.63
2023-04-16T08:47:37.869Z,10.97
2023-04-16T08:50:10.049Z,9.70
2023-04-16T08:52:43.388Z,12.03
2023-04-16T08:55:15.339Z,10.93
2023-04-16T08:57:53.542Z,12.23
2023-04-16T09:00:22.455Z,13.93
2023-04-16T09:02:52.231Z,24.87
2023-04-16T09:05:25.771Z,11.47
2023-04-16T09:07:54.543Z,13.20
2023-04-16T09:10:23.032Z,14.37
2023-04-16T09:12:51.290Z,11.57
2023-04-16T09:15:22.337Z,10.77
2023-04-16T09:17:50.438Z,11.43
2023-04-16T09:20:18.642Z,28.60
2023-04-16T09:22:48.558Z,14.47
2023-04-16T09:25:16.632Z,14.27
2023-04-16T09:27:45.360Z,11.50
2023-04-16T09:30:24.526Z,12.40
2023-04-16T09:32:53.802Z,8.03
2023-04-16T09:35:22.338Z,11.33
2023-04-16T09:37:59.344Z,14.67
2023-04-16T09:40:30.594Z,11.00
2023-04-16T09:43:00.590Z,9.37
2023-04-16T09:45:32.735Z,9.87
2023-04-16T09:48:04.981Z,11.63
2023-04-16T09:50:33.122Z,17.37
2023-04-16T09:53:03.790Z,10.40
2023-04-16T09:55:31.887Z,11.47
2023-04-16T09:58:01.091Z,8.17
2023-04-16T10:00:31.647Z,9.47
2023-04-16T10:03:07.221Z,10.63
2023-04-16T10:05:36.633Z,11.10
2023-04-16T10:08:13.290Z,10.03
2023-04-16T10:10:42.357Z,11.90
2023-04-16T10:13:10.847Z,11.83
2023-04-16T10:15:39.780Z,11.03
2023-04-16T10:18:08.503Z,10.90
2023-04-16T10:20:37.927Z,10.03
2023-04-16T10:23:08.032Z,11.23
2023-04-16T10:25:36.160Z,14.50
2023-04-16T10:28:04.705Z,25.80
2023-04-16T10:30:32.969Z,8.57
2023-04-16T10:33:01.599Z,11.13
2023-04-16T10:35:29.838Z,11.53
2023-04-16T10:37:58.262Z,18.13
2023-04-16T10:40:29.449Z,11.70
2023-04-16T10:42:58.505Z,12.60
2023-04-16T10:45:33.542Z,11.83
2023-04-16T10:48:06.127Z,8.33
2023-04-16T10:50:37.397Z,26.03
2023-04-16T10:53:25.951Z,12.57
2023-04-16T10:56:14.203Z,15.67
2023-04-16T10:58:42.795Z,16.93
2023-04-16T11:01:14.853Z,26.00
2023-04-16T11:03:44.412Z,11.13
2023-04-16T11:06:14.565Z,13.47
2023-04-16T11:08:53.861Z,12.80
2023-04-16T11:11:24.558Z,14.97
2023-04-16T11:13:57.983Z,13.27
2023-04-16T11:16:29.929Z,12.63
2023-04-16T11:18:58.388Z,15.43
2023-04-16T11:21:26.852Z,15.53
2023-04-16T11:23:56.808Z,12.50
2023-04-16T11:26:27.507Z,14.80
2023-04-16T11:28:57.446Z,12.90
2023-04-16T11:31:27.319Z,14.47
2023-04-16T11:33:57.706Z,11.70
2023-04-16T11:36:27.709Z,15.73
2023-04-16T11:39:03.231Z,14.13
2023-04-16T11:41:32.625Z,14.07
2023-04-16T11:44:00.633Z,12.10
2023-04-16T11:46:39.639Z,12.13
2023-04-16T11:49:07.977Z,13.50
2023-04-16T11:51:41.223Z,12.60
2023-04-16T11:54:12.035Z,14.37
2023-04-16T11:56:47.903Z,13.37
2023-04-16T11:59:17.824Z,13.47
2023-04-16T12:01:49.835Z,10.30
2023-04-16T12:04:20.617Z,15.13
2023-04-16T12:07:11.914Z,11.43
2023-04-16T12:09:41.741Z,13.77
2023-04-16T12:12:30.844Z,15.30
2023-04-16T12:15:03.191Z,11.47
2023-04-16T12:17:31.561Z,11.67
2023-04-16T12:20:02.147Z,8.83
2023-04-16T12:22:31.482Z,13.13
2023-04-16T12:25:04.243Z,12.03
2023-04-16T12:27:50.078Z,12.63
2023-04-16T12:30:22.527Z,9.10
2023-04-16T12:32:52.519Z,11.53
2023-04-16T12:35:32.149Z,9.63
2023-04-16T12:38:00.203Z,10.40
2023-04-16T12:40:28.166Z,11.53
2023-04-16T12:42:57.703Z,12.77
2023-04-16T12:45:25.948Z,13.03
2023-04-16T12:47:54.110Z,14.43
2023-04-16T12:50:22.292Z,13.97
2023-04-16T12:52:50.400Z,16.23
2023-04-16T12:55:18.485Z,12.50
2023-04-16T12:57:48.839Z,15.80
2023-04-16T13:00:18.787Z,13.90
2023-04-16T13:02:47.144Z,15.10
2023-04-16T13:05:16.796Z,11.70
2023-04-16T13:07:44.767Z,14.73
2023-04-16T13:10:13.480Z,10.27
2023-04-16T13:12:41.572Z,14.00
2023-04-16T13:15:11.142Z,10.00
2023-04-16T13:17:40.701Z,9.43
2023-04-16T13:20:11.147Z,11.00
2023-04-16T13:22:39.175Z,12.23
2023-04-16T13:25:08.431Z,8.10
2023-04-16T13:27:36.512Z,15.63
2023-04-16T13:30:04.708Z,8.97
2023-04-16T13:32:32.770Z,9.93
2023-04-16T13:35:02.290Z,11.40
2023-04-16T13:37:30.235Z,11.17
2023-04-16T13:39:58.160Z,9.17
2023-04-16T13:42:26.217Z,9.90
2023-04-16T13:44:55.105Z,11.73
2023-04-16T13:47:23.501Z,9.87
2023-04-16T13:49:51.915Z,14.10
2023-04-16T13:52:21.587Z,13.43
2023-04-16T13:54:49.715Z,13.83
2023-04-16T13:57:18.088Z,10.33
2023-04-16T13:59:46.069Z,14.77
2023-04-16T14:02:14.695Z,9.93
2023-04-16T14:04:42.683Z,10.13
2023-04-16T14:07:10.625Z,10.30
2023-04-16T14:09:40.058Z,11.77
2023-04-16T14:12:08.473Z,9.27
2023-04-16T14:14:36.802Z,13.03
2023-04-16T14:17:04.970Z,14.10
2023-04-16T14:19:33.228Z,14.43
2023-04-16T14:22:01.183Z,13.57
2023-04-16T14:24:29.113Z,13.83
2023-04-16T14:26:58.471Z,18.83
2023-04-16T14:29:26.935Z,12.17
2023-04-16T14:31:54.935Z,12.00
2023-04-16T14:34:22.879Z,10.07
2023-04-16T14:36:52.063Z,12.53
2023-04-16T14:39:20.115Z,9.63
2023-04-16T14:41:48.079Z,13.00
2023-04-16T14:44:17.419Z,13.87
2023-04-16T14:46:46.394Z,15.03
2023-04-16T14:49:14.726Z,12.50
2023-04-16T14:51:43.405Z,14.97
2023-04-16T14:54:12.129Z,15.50
2023-04-16T14:56:40.217Z,13.60
2023-04-16T14:59:08.439Z,17.07
2023-04-16T15:01:39.891Z,14.60
2023-04-16T15:04:08.289Z,16.37
2023-04-16T15:06:36.636Z,20.97
2023-04-16T15:09:05.046Z,25.20
2023-04-16T15:11:33.071Z,14.37
2023-04-16T15:14:01.273Z,12.90
2023-04-16T15:16:29.301Z,20.60
2023-04-16T15:18:58.751Z,18.87
2023-04-16T15:21:27.956Z,28.77
2023-04-16T15:23:56.220Z,21.97
2023-04-16T15:26:24.397Z,16.47
2023-04-16T15:28:52.342Z,17.63
2023-04-16T15:31:21.972Z,21.47
2023-04-16T15:33:50.321Z,17.70
2023-04-16T15:36:19.643Z,23.80
2023-04-16T15:38:47.833Z,17.57
2023-04-16T15:41:16.281Z,12.47
2023-04-16T15:43:45.033Z,10.97
2023-04-16T15:46:13.297Z,11.77
2023-04-16T15:48:41.267Z,14.63
2023-04-16T15:51:09.663Z,8.43
2023-04-16T15:53:39.011Z,8.20
2023-04-16T15:56:07.196Z,8.93
2023-04-16T15:58:35.241Z,11.67
2023-04-16T16:01:03.504Z,6.90
2023-04-16T16:03:33.166Z,7.70
2023-04-16T16:06:03.939Z,8.40
2023-04-16T16:08:34.200Z,5.43
2023-04-16T16:11:03.777Z,9.13
2023-04-16T16:13:31.771Z,8.17
2023-04-16T16:15:59.796Z,10.73
2023-04-16T16:18:27.935Z,7.00
2023-04-16T16:20:58.380Z,7.17
2023-04-16T16:23:27.132Z,7.00
2023-04-16T16:25:55.424Z,6.10
2023-04-16T16:28:25.278Z,7.33
2023-04-16T16:30:55.854Z,4.00
2023-04-16T16:33:23.864Z,4.73
2023-04-16T16:35:51.897Z,5.47
2023-04-16T16:38:19.919Z,4.37
2023-04-16T16:40:47.913Z,8.97
2023-04-16T16:43:16.427Z,7.07
2023-04-16T16:45:46.500Z,6.33
2023-04-16T16:48:14.561Z,7.23
2023-04-16T16:50:42.466Z,6.17
2023-04-16T16:53:10.488Z,7.27
2023-04-16T16:55:38.584Z,8.10
2023-04-16T16:58:06.883Z,5.43
2023-04-16T17:00:35.342Z,5.43
2023-04-16T17:03:05.057Z,5.50
2023-04-16T17:05:33.221Z,8.70
2023-04-16T17:08:01.264Z,7.57
2023-04-16T17:10:29.837Z,4.90
2023-04-16T17:12:57.907Z,9.50
2023-04-16T17:15:25.978Z,5.93
2023-04-16T17:17:54.030Z,12.47
2023-04-16T17:20:23.953Z,6.37
2023-04-16T17:22:52.250Z,6.97
2023-04-16T17:25:20.324Z,5.33
2023-04-16T17:27:48.237Z,5.13
2023-04-16T17:30:16.937Z,6.73
2023-04-16T17:32:45.165Z,14.77
2023-04-16T17:35:13.904Z,5.27
2023-04-16T17:37:43.347Z,4.10
2023-04-16T17:40:12.703Z,6.30
2023-04-16T17:42:40.918Z,4.33
2023-04-16T17:45:09.713Z,4.60
2023-04-16T17:47:38.138Z,17.50
2023-04-16T17:50:07.280Z,6.30
2023-04-16T17:52:35.399Z,23.97
2023-04-16T17:55:05.003Z,21.43
2023-04-16T17:57:33.118Z,7.60
2023-04-16T18:00:01.216Z,5.10
2023-04-16T18:02:29.604Z,8.83
2023-04-16T18:04:57.812Z,20.33
2023-04-16T18:07:26.580Z,62.37
2023-04-16T18:09:54.747Z,7.37
2023-04-16T18:12:24.257Z,6.17
2023-04-16T18:14:52.325Z,10.43
2023-04-16T18:17:21.848Z,6.20
2023-04-16T18:19:49.962Z,8.50
2023-04-16T18:22:18.312Z,6.10
2023-04-16T18:24:46.567Z,5.27
2023-04-16T18:27:14.798Z,4.63
2023-04-16T18:29:45.345Z,5.77
2023-04-16T18:32:13.467Z,9.30
2023-04-16T18:34:41.791Z,8.47
2023-04-16T18:37:09.781Z,6.00
2023-04-16T18:39:37.901Z,5.73
2023-04-16T18:42:06.207Z,6.33
2023-04-16T18:44:34.171Z,8.87
2023-04-16T18:47:03.853Z,9.27
2023-04-16T18:49:31.831Z,6.43
2023-04-16T18:51:59.816Z,6.17
2023-04-16T18:54:28.047Z,7.17
2023-04-16T18:56:57.773Z,7.23
2023-04-16T18:59:27.552Z,8.53
2023-04-16T19:01:55.781Z,8.57
2023-04-16T19:04:25.404Z,7.97
2023-04-16T19:06:53.650Z,7.20
2023-04-16T19:09:21.761Z,8.03
2023-04-16T19:11:50.594Z,7.33
2023-04-16T19:14:18.754Z,8.73
2023-04-16T19:16:47.491Z,8.00
2023-04-16T19:19:15.968Z,8.03
2023-04-16T19:21:45.554Z,7.73
2023-04-16T19:24:13.698Z,7.10
2023-04-16T19:26:41.771Z,6.20
2023-04-16T19:29:10.087Z,11.73
2023-04-16T19:31:38.457Z,13.97
2023-04-16T19:34:06.428Z,10.87
2023-04-16T19:36:34.669Z,8.30
2023-04-16T19:39:04.300Z,7.23
2023-04-16T19:41:32.297Z,7.57
2023-04-16T19:44:00.635Z,9.23
2023-04-16T19:46:28.609Z,6.60
2023-04-16T19:48:56.921Z,8.10
2023-04-16T19:51:25.184Z,7.20
2023-04-16T19:53:54.274Z,10.13
2023-04-16T19:56:23.671Z,4.97
2023-04-16T19:58:51.636Z,9.77
2023-04-16T20:01:19.680Z,7.80
2023-04-16T20:03:47.811Z,7.73
2023-04-16T20:06:17.483Z,7.40
2023-04-16T20:08:45.864Z,6.80
2023-04-16T20:11:14.469Z,9.90
2023-04-16T20:16:28.092Z,5.77
2023-04-16T20:18:56.366Z,4.13
2023-04-16T20:21:25.178Z,7.37
2023-04-16T20:23:53.319Z,6.53
2023-04-16T20:26:24.083Z,7.70
2023-04-16T20:28:53.359Z,5.70
2023-04-16T20:31:21.790Z,8.33
2023-04-16T20:33:51.347Z,8.10
2023-04-16T20:36:19.511Z,6.13
2023-04-16T20:38:47.729Z,7.77
2023-04-16T20:41:20.317Z,5.70
2023-04-16T20:43:50.955Z,6.97
2023-04-16T20:46:19.156Z,7.20
2023-04-16T20:48:47.139Z,7.30
2023-04-16T20:51:16.697Z,6.10
2023-04-16T20:53:44.833Z,6.67
2023-04-16T20:56:14.912Z,8.37
2023-04-16T20:58:43.880Z,4.47
2023-04-16T21:01:12.203Z,5.43
2023-04-16T21:03:40.667Z,6.20
2023-04-16T21:06:09.251Z,6.30
2023-04-16T21:08:38.800Z,8.13
2023-04-16T21:11:13.318Z,5.70
2023-04-16T21:13:41.456Z,6.90
2023-04-16T21:16:13.464Z,6.33
2023-04-16T21:18:41.594Z,7.70
2023-04-16T21:21:09.810Z,4.90
2023-04-16T21:23:39.548Z,6.97
2023-04-16T21:26:07.709Z,7.07
2023-04-16T21:28:36.826Z,7.37
2023-04-16T21:31:05.211Z,5.37
2023-04-16T21:33:33.401Z,5.07
2023-04-16T21:36:01.520Z,11.90
2023-04-16T21:38:29.602Z,7.67
2023-04-16T21:41:00.388Z,4.97
2023-04-16T21:43:30.704Z,7.80
2023-04-16T21:45:58.934Z,5.20
2023-04-16T21:48:29.168Z,6.17
2023-04-16T21:50:58.947Z,6.33
2023-04-16T21:53:28.146Z,6.97
2023-04-16T21:55:56.290Z,6.07
2023-04-16T21:58:26.723Z,7.13
2023-04-16T22:00:57.129Z,6.70
2023-04-16T22:03:28.219Z,5.67
2023-04-16T22:06:02.795Z,6.03
2023-04-16T22:08:31.179Z,6.60
2023-04-16T22:10:59.970Z,6.67
2023-04-16T22:13:32.519Z,6.37
2023-04-16T22:16:02.468Z,4.07
2023-04-16T22:18:35.797Z,5.97
2023-04-16T22:21:05.774Z,9.23
2023-04-16T22:23:33.871Z,6.43
2023-04-16T22:26:03.004Z,4.87
2023-04-16T22:28:32.796Z,7.37
2023-04-16T22:31:00.882Z,5.37
2023-04-16T22:33:35.629Z,7.53
2023-04-16T22:36:03.903Z,6.37
2023-04-16T22:38:34.721Z,8.03
2023-04-16T22:41:02.817Z,8.67
2023-04-16T22:43:32.489Z,8.37
2023-04-16T22:46:04.897Z,7.37
2023-04-16T22:48:34.050Z,5.70
2023-04-16T22:51:04.460Z,8.73
2023-04-16T22:53:34.848Z,5.83
2023-04-16T22:56:02.953Z,6.57
2023-04-16T22:58:32.445Z,6.30
2023-04-16T23:01:01.771Z,7.47
2023-04-16T23:03:34.408Z,5.40
2023-04-16T23:06:03.796Z,8.23
2023-04-16T23:08:36.067Z,9.80
2023-04-16T23:11:05.188Z,7.13
2023-04-16T23:13:36.852Z,5.37
2023-04-16T23:16:05.107Z,7.30
2023-04-16T23:18:35.608Z,10.07
2023-04-16T23:21:03.710Z,7.23
2023-04-16T23:23:31.916Z,8.60
2023-04-16T23:26:01.003Z,8.20
2023-04-16T23:28:29.242Z,8.37
2023-04-16T23:31:01.008Z,9.40
2023-04-16T23:33:29.143Z,8.17
2023-04-16T23:35:57.254Z,7.87
2023-04-16T23:38:27.390Z,6.40
2023-04-16T23:40:55.544Z,10.10
2023-04-16T23:43:23.827Z,8.57
2023-04-16T23:45:52.259Z,5.53
2023-04-16T23:48:23.072Z,7.10
2023-04-16T23:50:51.119Z,10.03
2023-04-16T23:53:19.373Z,8.00
2023-04-16T23:55:47.623Z,7.10
2023-04-16T23:58:17.691Z,9.27
